METAR AND TAF INFORMATION
METAR FOR EPZG
ADDS - METARS form results

(0621 UTC 22 July 2018)
Data provider http://aviationweather.gov/adds/metars/
 
METAR text: EPZG 220600Z 35005KT 310V010 CAVOK 17/13 Q1013
Conditions at: EPZG (ZIELONA GORA , PL) observed 0600 UTC 22 July 2018
Temperature: 17.0°C (63°F)
Dewpoint: 13.0°C (55°F) [RH = 77%]
Pressure (altimeter): 29.91 inches Hg (1013.0 mb)
Winds: from the N (350 degrees) at 6 MPH (5 knots; 2.6 m/s)
Visibility: 6 or more miles (10+ km)
Ceiling: ceiling and visibility are OK
Clouds: unknown
Weather: no significant weather observed at this time

METAR text: EPZG 220530Z 34003KT 310V020 CAVOK 17/13 Q1012
Conditions at: EPZG (ZIELONA GORA , PL) observed 0530 UTC 22 July 2018
Temperature: 17.0°C (63°F)
Dewpoint: 13.0°C (55°F) [RH = 77%]
Pressure (altimeter): 29.88 inches Hg (1012.0 mb)
Winds: from the NNW (340 degrees) at 3 MPH (3 knots; 1.6 m/s)
Visibility: 6 or more miles (10+ km)
Ceiling: ceiling and visibility are OK
Clouds: unknown
Weather: no significant weather observed at this time

Forecast for: EPZG (ZIELONA GORA , PL)
Text: TAF EPZG 220530Z 2206/2215 VRB02KT CAVOK
Forecast period: 0600 to 0900 UTC 22 July 2018
Forecast type: FROM: standard forecast or significant change
Winds: variable direction winds at 2 MPH (2 knots; 1.0 m/s)
Visibility: 6 or more miles (10+ km)
Clouds: not forecast
Weather: NSW  (no significant weather)
Text: BECMG 2209/2211 36010KT
Forecast period: 0900 to 1500 UTC 22 July 2018
Forecast type: BECOMING: Conditions expected to become as follows by 1100 UTC 22 July 2018
Winds: from the N (360 degrees) at 12 MPH (10 knots; 5.2 m/s)
Visibility: 6 or more miles (10+ km)
Weather: NSW  (no significant weather)

 AIRPORT MAP

 RUNWAY INFORMATION
Runway 06 Runway length 8202 ft Runway width 197 ft
Runway elevation 194 ft Runway displaced threshold 0 ft Runway heading 65
Runway 24 Runway length 8202 ft Runway width 197 ft
Runway elevation 187 ft Runway displaced threshold 0 ft Runway heading 245

 AIRPORT FREQUENCIES
Type TWR Name TWR Frequency 118.75 MHZ

 AIRPORT NEAR NAVIGATION AIDS
Type NDB Name Babimost Frequency 390 KHZ



Powered by Virtual Airlines Manager [v2.6.1]